Time;durP1;ratioP1;P1;durP2;ratioP2;P2;SDS_P1;SDS_P2;PMS_P1;PMS_P2;Temp;Humidity;BMP_temperature;BMP_pressure;BME280_temperature;BME280_humidity;BME280_pressure;Samples;Min_cycle;Max_cycle;Signal;HPM_P1;HPM_P2
2021/05/22 00:00:12;;;;;;;3.85;1.15;;;11.70;84.80;;;;;;5075549;28;20020;-84
2021/05/22 00:02:38;;;;;;;6.70;1.33;;;11.70;85.20;;;;;;5075595;28;20473;-85
2021/05/22 00:05:06;;;;;;;6.00;1.40;;;11.70;85.60;;;;;;5058084;23;20525;-84
2021/05/22 00:07:32;;;;;;;6.30;2.03;;;11.70;85.70;;;;;;5038268;28;20021;-85
2021/05/22 00:09:57;;;;;;;11.35;2.13;;;11.60;85.70;;;;;;5053600;28;20032;-84
2021/05/22 00:12:24;;;;;;;6.72;1.42;;;11.60;85.60;;;;;;5053308;28;20411;-84
2021/05/22 00:14:51;;;;;;;8.80;1.80;;;11.60;85.50;;;;;;5035734;28;20493;-83
2021/05/22 00:17:17;;;;;;;7.47;2.22;;;11.60;85.30;;;;;;5035437;28;20025;-85
2021/05/22 00:19:43;;;;;;;4.80;1.25;;;11.60;85.50;;;;;;5002805;28;20051;-84
2021/05/22 00:22:08;;;;;;;4.38;1.85;;;11.60;85.10;;;;;;5035100;28;20029;-84
2021/05/22 00:24:34;;;;;;;7.18;2.53;;;11.60;85.00;;;;;;5035397;28;20098;-85
2021/05/22 00:27:00;;;;;;;6.90;1.70;;;11.60;84.70;;;;;;5035352;28;20183;-85
2021/05/22 00:29:26;;;;;;;5.90;1.58;;;11.60;84.20;;;;;;5004366;28;20025;-84
2021/05/22 00:31:51;;;;;;;4.25;1.55;;;11.70;84.50;;;;;;5051726;28;20039;-84
2021/05/22 00:34:17;;;;;;;7.60;1.60;;;11.70;83.80;;;;;;5002280;28;20026;-84
2021/05/22 00:36:42;;;;;;;7.10;2.15;;;11.70;83.50;;;;;;5051780;28;20028;-84
2021/05/22 00:39:08;;;;;;;4.30;1.60;;;11.70;83.60;;;;;;5021419;28;20029;-84
2021/05/22 00:41:34;;;;;;;6.00;1.42;;;11.70;83.10;;;;;;5035299;28;20029;-84
2021/05/22 00:44:00;;;;;;;13.25;1.98;;;11.70;82.70;;;;;;5034998;28;20426;-84
2021/05/22 00:46:25;;;;;;;5.88;1.88;;;11.70;82.40;;;;;;5037463;28;20034;-84
2021/05/22 00:48:51;;;;;;;5.43;1.60;;;11.70;82.30;;;;;;5028283;28;20032;-85
2021/05/22 00:51:17;;;;;;;5.82;1.40;;;11.70;82.60;;;;;;5018392;28;20482;-85
2021/05/22 00:53:43;;;;;;;7.68;1.75;;;11.70;82.20;;;;;;5038358;28;20041;-84
2021/05/22 00:56:09;;;;;;;8.32;1.38;;;11.70;81.90;;;;;;5022233;28;20021;-84
2021/05/22 00:58:36;;;;;;;7.40;1.55;;;11.70;81.90;;;;;;5014938;28;20025;-84
2021/05/22 01:01:04;;;;;;;8.07;1.85;;;11.70;82.10;;;;;;5046624;28;20059;-84
2021/05/22 01:03:33;;;;;;;10.55;2.40;;;11.70;82.20;;;;;;5024795;28;20040;-84
2021/05/22 01:06:07;;;;;;;7.10;1.55;;;11.70;81.90;;;;;;5055245;28;20052;-84
2021/05/22 01:08:34;;;;;;;5.60;1.58;;;11.70;82.10;;;;;;5061477;28;20028;-84
2021/05/22 01:11:18;;;;;;;5.30;1.17;;;11.70;81.90;;;;;;5037726;28;20032;-84
2021/05/22 01:13:48;;;;;;;8.20;1.55;;;11.70;81.80;;;;;;5054366;28;20119;-84
2021/05/22 01:16:18;;;;;;;5.68;1.23;;;11.70;81.80;;;;;;5054322;28;20025;-84
2021/05/22 01:18:45;;;;;;;5.95;1.67;;;11.70;81.50;;;;;;5072478;28;20440;-84
2021/05/22 01:21:12;;;;;;;5.82;1.58;;;11.70;81.70;;;;;;5023763;28;20382;-83
2021/05/22 01:24:03;;;;;;;10.20;1.40;;;11.70;81.30;;;;;;5071001;28;20058;-85
2021/05/22 01:26:30;;;;;;;9.88;1.70;;;11.70;81.90;;;;;;5068478;28;20444;-84
2021/05/22 01:28:57;;;;;;;11.65;2.65;;;11.70;81.50;;;;;;5026825;28;20029;-84
2021/05/22 01:31:23;;;;;;;10.30;1.77;;;11.70;81.90;;;;;;5038090;28;20043;-84
2021/05/22 01:33:49;;;;;;;11.38;1.90;;;11.70;81.60;;;;;;5054418;28;20580;-85
2021/05/22 01:36:15;;;;;;;4.82;1.63;;;11.70;81.90;;;;;;5037638;28;20037;-84
2021/05/22 01:38:41;;;;;;;5.47;1.45;;;11.70;81.90;;;;;;5067229;28;20040;-84
2021/05/22 01:41:06;;;;;;;6.30;1.55;;;11.70;82.00;;;;;;5028017;28;20037;-86
2021/05/22 01:43:32;;;;;;;6.20;1.63;;;11.70;81.70;;;;;;5039305;28;20036;-83
2021/05/22 01:45:58;;;;;;;8.32;1.80;;;11.70;82.00;;;;;;5041760;28;20493;-84
2021/05/22 01:48:26;;;;;;;7.93;1.30;;;11.60;82.10;;;;;;5058406;28;20039;-84
2021/05/22 01:51:01;;;;;;;7.57;1.80;;;11.60;81.90;;;;;;5062403;28;20032;-84
2021/05/22 01:53:28;;;;;;;6.45;1.40;;;11.70;82.30;;;;;;5075984;28;20158;-85
2021/05/22 01:55:55;;;;;;;4.97;1.10;;;11.60;81.90;;;;;;5058088;28;20410;-85
2021/05/22 01:58:22;;;;;;;7.22;1.27;;;11.60;81.60;;;;;;5041603;28;20016;-84
2021/05/22 02:00:49;;;;;;;8.25;1.67;;;11.60;82.30;;;;;;5061904;28;20012;-84
2021/05/22 02:03:26;;;;;;;5.65;1.60;;;11.60;82.10;;;;;;5047990;28;20037;-84
2021/05/22 02:05:55;;;;;;;3.20;1.00;;;11.60;82.30;;;;;;5069893;28;20505;-85
2021/05/22 02:08:22;;;;;;;5.30;1.40;;;11.60;82.50;;;;;;5048166;28;20115;-85
2021/05/22 02:10:49;;;;;;;7.80;1.58;;;11.60;82.50;;;;;;5057868;28;20029;-84
2021/05/22 02:13:16;;;;;;;5.13;1.55;;;11.60;82.50;;;;;;5058068;28;20124;-85
2021/05/22 02:15:50;;;;;;;5.43;1.38;;;11.60;82.60;;;;;;5057003;28;20482;-83
2021/05/22 02:18:17;;;;;;;5.03;1.13;;;11.60;83.00;;;;;;5063503;28;20016;-84
2021/05/22 02:20:45;;;;;;;4.97;1.55;;;11.60;82.90;;;;;;5061635;28;20056;-85
2021/05/22 02:23:13;;;;;;;7.13;1.33;;;11.60;83.30;;;;;;5043908;28;20145;-85
2021/05/22 02:25:39;;;;;;;5.15;1.40;;;11.50;82.90;;;;;;5057607;28;20032;-85
2021/05/22 02:28:08;;;;;;;4.72;1.17;;;11.60;83.30;;;;;;5057513;28;20093;-84
2021/05/22 02:30:35;;;;;;;5.72;1.20;;;11.60;83.50;;;;;;5046477;28;20546;-84
2021/05/22 02:33:02;;;;;;;5.35;1.30;;;11.50;83.20;;;;;;5024543;28;20025;-84
2021/05/22 02:35:30;;;;;;;4.45;1.13;;;11.60;83.80;;;;;;5065865;28;20025;-85
2021/05/22 02:37:56;;;;;;;2.28;0.73;;;11.50;84.00;;;;;;5070959;28;20024;-84
2021/05/22 02:40:27;;;;;;;8.45;1.73;;;11.50;84.00;;;;;;5066467;28;20497;-83
2021/05/22 02:42:59;;;;;;;6.57;1.87;;;11.50;84.00;;;;;;5075470;28;20028;-84
2021/05/22 02:45:27;;;;;;;5.53;1.15;;;11.50;84.20;;;;;;5056297;28;20024;-84
2021/05/22 02:47:55;;;;;;;6.32;1.27;;;11.50;84.70;;;;;;5060807;28;20024;-84
2021/05/22 02:50:22;;;;;;;4.82;1.55;;;11.50;84.30;;;;;;5067058;28;20032;-84
2021/05/22 02:52:48;;;;;;;6.70;1.25;;;11.50;84.50;;;;;;5042670;28;20016;-84
2021/05/22 02:55:14;;;;;;;5.55;1.48;;;11.50;84.90;;;;;;5047612;28;20021;-83
2021/05/22 02:57:41;;;;;;;3.72;1.10;;;11.50;84.60;;;;;;5054250;28;20426;-84
2021/05/22 03:00:08;;;;;;;7.03;1.30;;;11.50;84.70;;;;;;5056939;28;20032;-84
2021/05/22 03:02:36;;;;;;;5.35;1.42;;;11.50;84.40;;;;;;5056654;28;20024;-84
2021/05/22 03:05:04;;;;;;;4.75;1.27;;;11.50;84.60;;;;;;5074557;28;20084;-84
2021/05/22 03:07:29;;;;;;;5.50;1.30;;;11.50;85.30;;;;;;5074962;28;20040;-84
2021/05/22 03:09:55;;;;;;;4.18;0.90;;;11.50;85.10;;;;;;5074737;28;20021;-84
2021/05/22 03:12:27;;;;;;;5.68;1.00;;;11.50;85.60;;;;;;5045608;28;20037;-84
2021/05/22 03:14:52;;;;;;;5.72;1.20;;;11.50;85.70;;;;;;5072356;28;20539;-84
2021/05/22 03:17:18;;;;;;;5.97;1.20;;;11.50;85.90;;;;;;5039901;28;20547;-84
2021/05/22 03:19:44;;;;;;;3.28;1.00;;;11.50;85.80;;;;;;5042350;28;20048;-84
2021/05/22 03:22:11;;;;;;;4.07;1.30;;;11.50;85.80;;;;;;5062391;28;20070;-84
2021/05/22 03:24:37;;;;;;;9.65;1.25;;;11.50;85.70;;;;;;5072937;28;20040;-84
2021/05/22 03:27:03;;;;;;;4.20;1.20;;;11.50;85.30;;;;;;5061744;28;20032;-84
2021/05/22 03:29:29;;;;;;;6.05;1.67;;;11.50;85.30;;;;;;5046224;28;20389;-84
2021/05/22 03:31:54;;;;;;;6.25;1.23;;;11.50;85.30;;;;;;5059945;28;20028;-84
2021/05/22 03:34:20;;;;;;;4.25;0.98;;;11.50;85.20;;;;;;5064342;28;20033;-85
2021/05/22 03:36:46;;;;;;;3.60;0.90;;;11.50;85.10;;;;;;5056474;28;20017;-85
2021/05/22 03:39:11;;;;;;;7.57;1.20;;;11.50;85.10;;;;;;5047784;28;20040;-84
2021/05/22 03:41:37;;;;;;;2.83;1.00;;;11.50;85.10;;;;;;5056198;28;20542;-84
2021/05/22 03:44:03;;;;;;;4.63;0.98;;;11.50;85.30;;;;;;5023677;28;20032;-84
2021/05/22 03:46:29;;;;;;;2.65;0.70;;;11.50;85.10;;;;;;5066116;28;20036;-84
2021/05/22 03:48:55;;;;;;;3.55;0.90;;;11.50;85.20;;;;;;5072533;28;20032;-84
2021/05/22 03:51:21;;;;;;;9.95;1.50;;;11.60;85.20;;;;;;5027625;28;20037;-84
2021/05/22 03:53:47;;;;;;;5.88;1.10;;;11.60;85.20;;;;;;5045058;28;20032;-84
2021/05/22 03:56:14;;;;;;;5.18;0.90;;;11.60;85.40;;;;;;5044805;28;20117;-85
2021/05/22 03:58:40;;;;;;;5.90;1.23;;;11.60;85.20;;;;;;5073827;28;20548;-83
2021/05/22 04:01:05;;;;;;;3.88;1.10;;;11.60;85.30;;;;;;5023510;28;20123;-84
2021/05/22 04:03:31;;;;;;;3.97;1.10;;;11.60;85.20;;;;;;5048881;28;20382;-84
2021/05/22 04:05:57;;;;;;;3.67;0.90;;;11.60;85.20;;;;;;5037178;28;20077;-84
2021/05/22 04:08:22;;;;;;;5.50;1.35;;;11.60;85.20;;;;;;5055662;28;20055;-85
2021/05/22 04:10:48;;;;;;;4.40;1.45;;;11.60;85.50;;;;;;5055493;28;20028;-84
2021/05/22 04:13:14;;;;;;;3.83;1.30;;;11.60;85.70;;;;;;5038909;28;20555;-84
2021/05/22 04:15:40;;;;;;;7.25;1.40;;;11.60;86.00;;;;;;5059891;28;20025;-86
2021/05/22 04:18:09;;;;;;;6.65;1.30;;;11.60;85.70;;;;;;5071598;28;20067;-84
2021/05/22 04:20:36;;;;;;;6.03;1.30;;;11.60;86.00;;;;;;5061349;28;20094;-84
2021/05/22 04:23:02;;;;;;;2.97;1.08;;;11.60;86.10;;;;;;5069900;28;20058;-85
2021/05/22 04:25:28;;;;;;;7.40;1.98;;;11.60;86.50;;;;;;5055276;28;20386;-85
2021/05/22 04:27:54;;;;;;;4.97;1.10;;;11.60;86.70;;;;;;5036075;28;20048;-85
2021/05/22 04:30:20;;;;;;;6.13;1.15;;;11.60;86.60;;;;;;5068684;28;20478;-84
2021/05/22 04:32:46;;;;;;;6.57;1.40;;;11.60;87.00;;;;;;5038807;28;20052;-85
2021/05/22 04:35:13;;;;;;;6.05;1.70;;;11.50;87.90;;;;;;5071758;28;20505;-84
2021/05/22 04:37:39;;;;;;;6.68;1.52;;;11.60;88.30;;;;;;5045403;28;20029;-84
2021/05/22 04:40:05;;;;;;;7.03;1.60;;;11.50;89.00;;;;;;5039254;28;20079;-85
2021/05/22 04:42:32;;;;;;;5.47;1.38;;;11.50;89.40;;;;;;5026134;28;20060;-84
2021/05/22 04:44:57;;;;;;;5.63;1.40;;;11.50;89.80;;;;;;5041219;28;20025;-85
2021/05/22 04:47:23;;;;;;;5.78;1.50;;;11.40;90.00;;;;;;5032471;28;20359;-84
2021/05/22 04:49:49;;;;;;;3.13;1.20;;;11.40;90.60;;;;;;5062796;28;20024;-85
2021/05/22 04:52:14;;;;;;;7.53;1.45;;;11.40;90.80;;;;;;5037518;28;20386;-85
2021/05/22 04:54:40;;;;;;;4.47;0.98;;;11.30;90.90;;;;;;5036434;28;20029;-83
2021/05/22 04:57:06;;;;;;;5.82;1.77;;;11.20;91.10;;;;;;5053885;28;20410;-84
2021/05/22 04:59:32;;;;;;;5.88;1.33;;;11.20;91.80;;;;;;5058925;28;20025;-85
2021/05/22 05:01:58;;;;;;;6.88;1.35;;;11.20;92.00;;;;;;5053758;28;20527;-85
2021/05/22 05:04:23;;;;;;;6.60;1.55;;;11.20;92.20;;;;;;5038795;28;20048;-84
2021/05/22 05:06:49;;;;;;;5.57;1.50;;;11.10;92.20;;;;;;5036103;28;20082;-85
2021/05/22 05:09:17;;;;;;;10.77;2.08;;;11.10;92.40;;;;;;5053235;28;20095;-84
2021/05/22 05:11:43;;;;;;;9.98;1.90;;;11.10;92.50;;;;;;5053056;28;20059;-84
2021/05/22 05:14:08;;;;;;;4.05;1.17;;;11.10;92.50;;;;;;5034479;28;20033;-84
2021/05/22 05:16:34;;;;;;;5.50;1.45;;;11.00;92.60;;;;;;5056981;28;20029;-84
2021/05/22 05:19:00;;;;;;;7.07;1.33;;;11.00;92.60;;;;;;5023859;28;20039;-83
2021/05/22 05:21:25;;;;;;;10.15;1.80;;;11.00;92.90;;;;;;5054090;28;20458;-84
2021/05/22 05:23:51;;;;;;;7.45;1.58;;;11.00;93.00;;;;;;5054458;28;20123;-82
2021/05/22 05:26:17;;;;;;;7.93;1.83;;;11.00;92.90;;;;;;5058284;28;20025;-84
2021/05/22 05:28:42;;;;;;;3.70;1.30;;;11.00;93.50;;;;;;5044127;28;20081;-85
2021/05/22 05:31:08;;;;;;;6.68;1.50;;;11.00;93.60;;;;;;5054203;28;20099;-84
2021/05/22 05:33:34;;;;;;;6.80;1.75;;;11.00;93.90;;;;;;5046505;28;20029;-85
2021/05/22 05:35:59;;;;;;;7.00;2.47;;;11.00;94.00;;;;;;5024100;28;20033;-83
2021/05/22 05:38:25;;;;;;;6.07;1.35;;;11.00;94.10;;;;;;5037451;28;20031;-83
2021/05/22 05:40:54;;;;;;;7.45;1.60;;;10.90;94.30;;;;;;5054194;28;20481;-84
2021/05/22 05:43:20;;;;;;;6.25;1.75;;;10.90;94.30;;;;;;5057959;28;20071;-83
2021/05/22 05:45:45;;;;;;;9.00;1.60;;;10.90;94.40;;;;;;5037463;28;20417;-84
2021/05/22 05:48:11;;;;;;;8.25;1.55;;;10.90;94.60;;;;;;5059860;28;20143;-83
2021/05/22 05:50:37;;;;;;;8.60;1.50;;;10.90;94.90;;;;;;5056166;28;20029;-83
2021/05/22 05:53:36;;;;;;;7.97;2.17;;;10.90;94.80;;;;;;5070088;28;20032;-83
2021/05/22 05:56:03;;;;;;;8.73;2.15;;;10.90;95.10;;;;;;5070941;28;20031;-83
2021/05/22 05:58:28;;;;;;;9.77;1.65;;;10.90;95.10;;;;;;5071919;28;20535;-84
2021/05/22 06:00:54;;;;;;;5.10;1.35;;;10.90;95.30;;;;;;5043101;28;20025;-83
2021/05/22 06:03:30;;;;;;;5.60;1.42;;;10.90;95.30;;;;;;5048127;28;20032;-84
2021/05/22 06:05:56;;;;;;;10.85;1.65;;;10.80;95.40;;;;;;5077137;22;20086;-86
2021/05/22 06:08:22;;;;;;;6.95;1.75;;;10.80;95.70;;;;;;5037527;28;20068;-86
2021/05/22 06:10:49;;;;;;;10.55;1.80;;;10.80;95.80;;;;;;5053151;28;20025;-87
2021/05/22 06:13:32;;;;;;;11.27;1.98;;;10.70;95.80;;;;;;5046976;28;20504;-86
2021/05/22 06:16:26;;;;;;;8.90;1.73;;;10.70;96.00;;;;;;5063213;28;20040;-86
2021/05/22 06:18:44;;;;;;;7.10;1.50;;;10.70;96.30;;;;;;5051855;28;20033;-85
2021/05/22 06:21:10;;;;;;;10.82;1.88;;;10.70;96.40;;;;;;5045603;28;20021;-87
2021/05/22 06:23:36;;;;;;;9.25;1.77;;;10.70;96.60;;;;;;5060920;28;20036;-86
2021/05/22 06:26:03;;;;;;;6.70;1.55;;;10.70;96.60;;;;;;5076134;28;20029;-87
2021/05/22 06:28:29;;;;;;;9.75;1.70;;;10.70;96.60;;;;;;5063310;28;20100;-86
2021/05/22 06:30:56;;;;;;;7.70;1.52;;;10.70;96.90;;;;;;5060558;28;20039;-87
2021/05/22 06:33:22;;;;;;;9.88;2.08;;;10.70;96.90;;;;;;5029481;28;20024;-86
2021/05/22 06:35:47;;;;;;;4.82;1.35;;;10.70;97.00;;;;;;5062427;28;20484;-86
2021/05/22 06:38:13;;;;;;;9.20;1.52;;;10.70;97.10;;;;;;5075363;28;20024;-86
2021/05/22 06:40:39;;;;;;;4.97;1.38;;;10.70;97.10;;;;;;5042867;28;20029;-86
2021/05/22 06:43:05;;;;;;;6.22;1.38;;;10.70;97.30;;;;;;5070226;28;20031;-84
2021/05/22 06:45:39;;;;;;;6.30;1.20;;;10.70;97.30;;;;;;5043038;28;20442;-85
2021/05/22 06:48:06;;;;;;;6.10;1.48;;;10.70;97.40;;;;;;5041374;28;20037;-85
2021/05/22 06:50:32;;;;;;;9.82;1.60;;;10.70;97.40;;;;;;5074898;28;20059;-85
2021/05/22 06:53:02;;;;;;;8.40;2.22;;;10.70;97.60;;;;;;5073096;28;20069;-85
2021/05/22 06:55:27;;;;;;;6.05;1.52;;;10.70;97.70;;;;;;5073686;28;19997;-86
2021/05/22 06:57:53;;;;;;;7.93;1.70;;;10.70;97.60;;;;;;5067719;28;20100;-84
2021/05/22 07:00:20;;;;;;;5.88;1.33;;;10.70;97.70;;;;;;5056156;28;20047;-86
2021/05/22 07:02:46;;;;;;;5.20;1.17;;;10.70;97.80;;;;;;5064456;28;20084;-86
2021/05/22 07:05:12;;;;;;;7.85;2.45;;;10.70;97.50;;;;;;5047834;28;20084;-84
2021/05/22 07:07:39;;;;;;;8.35;1.80;;;10.70;97.70;;;;;;5080235;28;20032;-84
2021/05/22 07:10:05;;;;;;;7.53;1.60;;;10.70;97.80;;;;;;5024010;28;20056;-84
2021/05/22 07:12:31;;;;;;;6.40;1.40;;;10.80;97.90;;;;;;5040947;28;20107;-84
2021/05/22 07:14:57;;;;;;;4.38;1.40;;;10.80;98.00;;;;;;5047017;28;20028;-84
2021/05/22 07:17:23;;;;;;;5.50;1.77;;;10.80;98.10;;;;;;5064944;28;20031;-87
2021/05/22 07:19:48;;;;;;;5.32;1.58;;;10.80;98.00;;;;;;5074560;28;20067;-83
2021/05/22 07:22:14;;;;;;;6.55;1.85;;;10.70;98.30;;;;;;5061034;28;20033;-85
2021/05/22 07:24:40;;;;;;;7.72;2.08;;;10.80;98.10;;;;;;5043734;28;20521;-88
2021/05/22 07:27:06;;;;;;;5.03;1.27;;;10.70;98.30;;;;;;5037863;28;20423;-84
2021/05/22 07:29:32;;;;;;;6.70;1.67;;;10.70;98.30;;;;;;5066581;28;20025;-86
2021/05/22 07:31:58;;;;;;;3.75;1.63;;;10.70;98.30;;;;;;5033852;28;20402;-84
2021/05/22 07:34:24;;;;;;;5.55;1.42;;;10.70;98.70;;;;;;5047689;28;20566;-85
2021/05/22 07:36:49;;;;;;;4.65;1.63;;;10.70;98.40;;;;;;5067691;28;20078;-84
2021/05/22 07:39:15;;;;;;;6.03;1.42;;;10.70;98.40;;;;;;5066202;28;20408;-85
2021/05/22 07:41:42;;;;;;;4.82;1.30;;;10.70;98.30;;;;;;5049496;28;20057;-85
2021/05/22 07:44:08;;;;;;;8.80;2.00;;;10.70;98.40;;;;;;5036644;28;20411;-83
2021/05/22 07:46:34;;;;;;;6.47;1.75;;;10.80;98.40;;;;;;5055036;28;20551;-86
2021/05/22 07:49:01;;;;;;;6.13;1.63;;;10.80;98.60;;;;;;5053119;28;20063;-84
2021/05/22 07:51:26;;;;;;;5.15;1.23;;;10.80;98.60;;;;;;5057983;28;20027;-85
2021/05/22 07:53:55;;;;;;;7.38;1.70;;;10.80;98.70;;;;;;5042708;28;20025;-85
2021/05/22 07:56:20;;;;;;;4.70;1.95;;;10.80;98.80;;;;;;5059355;28;20025;-85
2021/05/22 07:58:52;;;;;;;2.90;1.13;;;10.80;98.70;;;;;;5038033;28;20493;-85
2021/05/22 08:01:17;;;;;;;4.93;1.52;;;10.80;98.70;;;;;;5060998;28;20021;-84
2021/05/22 08:03:43;;;;;;;3.83;1.20;;;10.80;98.90;;;;;;5035762;28;20040;-84
2021/05/22 08:06:10;;;;;;;2.53;1.05;;;10.90;98.80;;;;;;5026890;28;20080;-84
2021/05/22 08:08:36;;;;;;;7.32;1.40;;;10.90;98.80;;;;;;5042500;28;20028;-84
2021/05/22 08:11:01;;;;;;;4.38;1.40;;;10.90;99.00;;;;;;5057178;28;20485;-84
2021/05/22 08:13:29;;;;;;;4.22;1.35;;;10.90;98.90;;;;;;5088921;28;20542;-85
2021/05/22 08:15:56;;;;;;;2.63;1.17;;;10.90;98.90;;;;;;5078047;28;20017;-84
2021/05/22 08:18:22;;;;;;;4.22;1.20;;;10.90;98.90;;;;;;5056820;28;20018;-84
2021/05/22 08:20:47;;;;;;;3.45;1.30;;;10.90;99.00;;;;;;5030044;28;20021;-85
2021/05/22 08:23:13;;;;;;;4.13;1.40;;;11.00;99.10;;;;;;5025874;28;20082;-84
2021/05/22 08:25:39;;;;;;;5.43;1.48;;;11.00;99.10;;;;;;5073616;28;20037;-85
2021/05/22 08:28:06;;;;;;;4.95;1.50;;;11.00;99.10;;;;;;5068001;28;20107;-84
2021/05/22 08:30:32;;;;;;;4.78;1.40;;;11.00;99.20;;;;;;5059049;28;20039;-84
2021/05/22 08:32:58;;;;;;;3.92;1.30;;;11.00;99.30;;;;;;5074606;28;20054;-84
2021/05/22 08:35:24;;;;;;;3.70;1.40;;;11.00;99.40;;;;;;5045270;28;20087;-83
2021/05/22 08:37:49;;;;;;;7.43;1.60;;;11.00;99.40;;;;;;5068950;28;20431;-85
2021/05/22 08:40:15;;;;;;;5.35;1.42;;;11.00;99.50;;;;;;5035750;28;20128;-85
2021/05/22 08:42:41;;;;;;;3.45;1.55;;;11.00;99.60;;;;;;5056561;28;20020;-85
2021/05/22 08:45:15;;;;;;;5.35;1.90;;;11.00;99.60;;;;;;5035184;28;20454;-85
2021/05/22 08:47:41;;;;;;;5.35;1.60;;;11.00;99.60;;;;;;5048002;28;20051;-86
2021/05/22 08:50:10;;;;;;;3.35;1.40;;;11.00;99.60;;;;;;5056076;28;20070;-84
2021/05/22 08:52:36;;;;;;;3.83;1.45;;;11.00;99.60;;;;;;5062187;28;20053;-85
2021/05/22 08:55:03;;;;;;;7.78;1.50;;;11.00;99.70;;;;;;5056992;28;20446;-85
2021/05/22 08:57:29;;;;;;;5.93;1.65;;;11.00;99.80;;;;;;5045708;28;20025;-85
2021/05/22 08:59:55;;;;;;;3.45;1.83;;;11.10;99.80;;;;;;5046868;28;20070;-83
2021/05/22 09:02:22;;;;;;;2.88;1.33;;;11.10;99.80;;;;;;5050843;28;20020;-86
2021/05/22 09:05:12;;;;;;;5.50;1.40;;;11.10;99.90;;;;;;5080386;28;20485;-85
2021/05/22 09:07:45;;;;;;;4.93;1.50;;;11.10;99.90;;;;;;5065565;28;20433;-86
2021/05/22 09:10:18;;;;;;;3.33;1.60;;;11.10;99.90;;;;;;5059774;28;20032;-85
2021/05/22 09:12:46;;;;;;;7.15;1.83;;;11.10;99.90;;;;;;5077611;28;20054;-85
2021/05/22 09:15:19;;;;;;;3.38;1.50;;;11.10;99.90;;;;;;5086102;28;20077;-85
2021/05/22 09:18:05;;;;;;;3.60;1.60;;;11.10;99.90;;;;;;5080468;28;20070;-84
2021/05/22 09:20:59;;;;;;;5.22;1.92;;;11.10;99.90;;;;;;5053644;28;20025;-83
2021/05/22 09:23:27;;;;;;;6.80;2.00;;;11.20;99.90;;;;;;5077746;28;20530;-85
2021/05/22 09:25:56;;;;;;;4.68;1.80;;;11.20;99.90;;;;;;5090112;28;20051;-84
2021/05/22 09:28:43;;;;;;;5.55;2.17;;;11.20;99.90;;;;;;5081964;28;20024;-85
2021/05/22 09:31:13;;;;;;;10.50;2.33;;;11.20;99.90;;;;;;5062810;28;20024;-84
2021/05/22 09:33:39;;;;;;;4.38;1.98;;;11.20;99.90;;;;;;5053602;28;20351;-85
2021/05/22 09:36:12;;;;;;;10.75;3.03;;;11.20;99.90;;;;;;5052941;28;20047;-85
2021/05/22 09:38:50;;;;;;;6.30;2.38;;;11.30;99.90;;;;;;5043361;28;20020;-83
2021/05/22 09:41:38;;;;;;;5.57;2.13;;;11.30;99.90;;;;;;5044386;28;20051;-82
2021/05/22 09:44:25;;;;;;;5.45;2.40;;;11.30;99.90;;;;;;5067036;28;20086;-83
2021/05/22 09:46:51;;;;;;;4.20;2.28;;;11.40;99.90;;;;;;5046093;28;20033;-83
2021/05/22 09:49:28;;;;;;;4.38;1.85;;;11.40;99.90;;;;;;5081201;28;20024;-84
2021/05/22 09:51:57;;;;;;;5.50;2.42;;;11.40;99.90;;;;;;5091777;28;20072;-84
2021/05/22 09:54:46;;;;;;;3.90;1.90;;;11.40;99.90;;;;;;5055524;28;20047;-83
2021/05/22 09:57:32;;;;;;;4.10;2.00;;;11.40;99.90;;;;;;5069538;28;20020;-83
2021/05/22 10:00:08;;;;;;;5.47;2.20;;;11.50;99.90;;;;;;5052722;28;20033;-83
2021/05/22 10:02:53;;;;;;;5.45;2.30;;;11.50;99.90;;;;;;5066782;28;20033;-84
2021/05/22 10:05:29;;;;;;;4.35;2.20;;;11.50;99.90;;;;;;5073293;28;20051;-83
2021/05/22 10:07:56;;;;;;;4.25;2.03;;;11.60;99.90;;;;;;5069887;28;20040;-83
2021/05/22 10:10:36;;;;;;;3.25;2.00;;;11.60;99.80;;;;;;5088064;28;20017;-82
2021/05/22 10:13:04;;;;;;;5.03;2.10;;;11.60;99.90;;;;;;5051864;28;20422;-84
2021/05/22 10:15:30;;;;;;;7.18;2.72;;;11.60;99.60;;;;;;5073732;28;20492;-83
2021/05/22 10:17:55;;;;;;;6.32;2.20;;;11.60;99.50;;;;;;5042195;28;20025;-85
2021/05/22 10:20:21;;;;;;;4.70;2.17;;;11.60;99.20;;;;;;5024818;28;20025;-84
2021/05/22 10:22:48;;;;;;;7.60;2.53;;;11.70;99.10;;;;;;5040948;28;20029;-84
2021/05/22 10:25:13;;;;;;;3.92;2.00;;;11.70;99.20;;;;;;5053634;28;20028;-84
2021/05/22 10:27:39;;;;;;;3.75;2.13;;;11.70;99.30;;;;;;5042007;28;20112;-86
2021/05/22 10:30:08;;;;;;;4.18;2.20;;;11.70;99.40;;;;;;5022440;28;20033;-84
2021/05/22 10:32:37;;;;;;;3.38;2.25;;;11.70;99.30;;;;;;5053207;28;20107;-84
2021/05/22 10:35:20;;;;;;;3.80;2.33;;;11.80;99.20;;;;;;5038165;28;20505;-84
2021/05/22 10:37:48;;;;;;;4.63;2.17;;;11.80;99.30;;;;;;5058319;28;20029;-85
2021/05/22 10:40:41;;;;;;;3.72;2.10;;;11.80;99.10;;;;;;5041782;28;20043;-85
2021/05/22 10:43:06;;;;;;;3.78;2.15;;;11.80;99.40;;;;;;5033518;28;20043;-84
2021/05/22 10:45:36;;;;;;;3.42;2.30;;;11.90;99.10;;;;;;5052496;28;20466;-84
2021/05/22 10:48:03;;;;;;;4.22;1.63;;;12.00;99.10;;;;;;5052103;28;20356;-84
2021/05/22 10:50:37;;;;;;;2.95;2.30;;;12.00;99.10;;;;;;5051305;28;20025;-83
2021/05/22 10:53:19;;;;;;;3.47;2.00;;;12.00;98.90;;;;;;5058073;28;20499;-83
2021/05/22 10:56:02;;;;;;;5.40;2.20;;;12.10;98.70;;;;;;5043293;28;20441;-84
2021/05/22 10:58:28;;;;;;;5.85;2.40;;;12.10;98.80;;;;;;5055220;28;20020;-84
2021/05/22 11:01:22;;;;;;;5.78;2.35;;;12.10;98.90;;;;;;5026861;28;20043;-84
2021/05/22 11:04:07;;;;;;;3.53;2.00;;;12.10;98.90;;;;;;5074866;28;20492;-83
2021/05/22 11:06:40;;;;;;;4.25;2.00;;;12.10;98.50;;;;;;5046242;28;20067;-84
2021/05/22 11:09:43;;;;;;;3.88;2.28;;;12.10;98.80;;;;;;5055837;28;20102;-82
2021/05/22 11:12:12;;;;;;;2.75;2.10;;;12.10;99.00;;;;;;5062735;28;20031;-84
2021/05/22 11:14:40;;;;;;;7.55;2.80;;;12.10;99.20;;;;;;5064797;28;20024;-84
2021/05/22 11:18:01;;;;;;;4.30;2.45;;;12.00;99.20;;;;;;5073728;28;20408;-84
2021/05/22 11:20:27;;;;;;;;;;;12.00;99.30;;;;;;5054738;28;20434;-84
2021/05/22 11:22:54;;;;;;;4.90;2.40;;;12.10;99.40;;;;;;5055396;28;19948;-86
2021/05/22 11:25:21;;;;;;;4.30;2.47;;;12.00;99.60;;;;;;5055047;28;20039;-84
2021/05/22 11:28:00;;;;;;;4.20;2.40;;;12.10;99.90;;;;;;5037148;28;20386;-84
2021/05/22 11:30:35;;;;;;;4.20;2.63;;;12.00;99.80;;;;;;5041043;28;20029;-84
2021/05/22 11:33:09;;;;;;;4.75;2.45;;;12.10;99.90;;;;;;5047888;28;20397;-84
2021/05/22 11:35:41;;;;;;;4.20;2.50;;;12.10;99.90;;;;;;5037739;28;20020;-85
2021/05/22 11:38:18;;;;;;;4.38;2.60;;;12.20;99.90;;;;;;5047038;28;20469;-85
2021/05/22 11:40:44;;;;;;;3.65;2.55;;;12.20;99.90;;;;;;5075302;28;20481;-84
2021/05/22 11:43:16;;;;;;;4.15;2.50;;;12.10;99.90;;;;;;5075167;28;20028;-84
2021/05/22 11:45:43;;;;;;;3.65;2.28;;;12.10;99.90;;;;;;5056171;28;20119;-84
2021/05/22 11:48:24;;;;;;;3.05;2.00;;;12.10;99.90;;;;;;5051843;28;20085;-84
2021/05/22 11:50:50;;;;;;;2.38;1.75;;;12.00;99.90;;;;;;5049170;28;20033;-85
2021/05/22 11:53:17;;;;;;;2.95;1.77;;;12.10;99.90;;;;;;5035451;28;20029;-83
2021/05/22 11:55:43;;;;;;;4.00;2.28;;;12.10;99.90;;;;;;5044679;28;20027;-84
2021/05/22 11:58:15;;;;;;;2.65;1.90;;;12.10;99.90;;;;;;5057584;28;20024;-85
2021/05/22 12:00:40;;;;;;;2.35;1.88;;;12.10;99.90;;;;;;5036658;28;20036;-87
2021/05/22 12:03:07;;;;;;;5.88;2.95;;;12.10;99.90;;;;;;5020676;28;20484;-86
2021/05/22 12:05:40;;;;;;;3.92;2.53;;;12.20;99.90;;;;;;5070019;23;20048;-86
2021/05/22 12:08:17;;;;;;;3.85;2.38;;;12.20;99.90;;;;;;5072225;28;20028;-85
2021/05/22 12:10:43;;;;;;;5.47;2.50;;;12.30;99.90;;;;;;5072238;28;20013;-85
2021/05/22 12:13:08;;;;;;;4.18;2.90;;;12.40;99.90;;;;;;5072098;28;20425;-85
2021/05/22 12:15:35;;;;;;;11.45;3.15;;;12.40;99.90;;;;;;5055429;28;20355;-85
2021/05/22 12:18:03;;;;;;;5.30;3.08;;;12.40;99.90;;;;;;5041391;28;20025;-85
2021/05/22 12:20:29;;;;;;;4.05;2.88;;;12.40;99.90;;;;;;5073350;28;20025;-84
2021/05/22 12:22:55;;;;;;;5.32;3.25;;;12.40;99.90;;;;;;5058640;28;20093;-84
2021/05/22 12:25:21;;;;;;;6.38;3.45;;;12.30;99.90;;;;;;5075048;28;20035;-85
2021/05/22 12:27:47;;;;;;;7.90;4.00;;;12.30;99.90;;;;;;5046006;28;20067;-84
2021/05/22 12:30:15;;;;;;;4.85;3.42;;;12.30;99.90;;;;;;5052402;28;20052;-85
2021/05/22 12:32:42;;;;;;;6.13;3.90;;;12.30;99.90;;;;;;5042802;28;20039;-84
2021/05/22 12:35:09;;;;;;;7.63;4.30;;;12.30;99.90;;;;;;5035824;28;20425;-85
2021/05/22 12:37:36;;;;;;;5.57;3.97;;;12.30;99.90;;;;;;5042764;28;20098;-85
2021/05/22 12:40:07;;;;;;;7.22;4.00;;;12.30;99.90;;;;;;5045308;28;20547;-85
2021/05/22 12:42:38;;;;;;;5.43;3.70;;;12.30;99.90;;;;;;5041366;28;20020;-85
2021/05/22 12:45:17;;;;;;;5.17;3.77;;;12.30;99.90;;;;;;5072787;28;20025;-84
2021/05/22 12:47:48;;;;;;;5.70;3.35;;;12.30;99.90;;;;;;5061636;28;20581;-84
2021/05/22 12:50:30;;;;;;;;;;;12.30;99.90;;;;;;5055030;28;20553;-87
2021/05/22 12:53:03;;;;;;;4.57;3.50;;;12.20;99.90;;;;;;5046157;28;20061;-85
2021/05/22 12:55:31;;;;;;;7.97;4.43;;;12.20;99.90;;;;;;5054574;28;20028;-85